BJN099 ZBAA-RKSS
Flight info
| Callsign | BJN099 |
|---|---|
| Flight time | 1h 16m |
| Altitude | 29100 |
| Route | MUGLO W34 VAPGU W100 ORAVA W201 UNSEK A326 DONVO G597 AGAVO/N0471F290 Y644 REBIT |
| Aircraft | B737/M-SDE2E3FGHIJ5M1P2RWXYZ/LB1D1 |
Departure
| Time | 2026-05-08 07:02 |
|---|---|
| Airport | Beijing Capital International Airport (ZBAA) |
Arrival
| Time | 2026-05-08 08:18 |
|---|---|
| Airport | Gimpo International Airport (RKSS) |
| Time | Latitude | Longitude | Altitude | Speed | Heading |
|---|---|---|---|---|---|
| 2026-05-08 06:42 | 40.05528 | 116.59466 | 104 ft | 0 kts | 263° |
| 2026-05-08 06:50 | 40.05530 | 116.59481 | 150 ft | 4 kts | 263° |
| 2026-05-08 06:51 | 40.05533 | 116.59516 | 118 ft | 4 kts | 263° |
| 2026-05-08 06:51 | 40.05535 | 116.59550 | 120 ft | 4 kts | 281° |
| 2026-05-08 06:51 | 40.05523 | 116.59580 | 118 ft | 4 kts | 324° |
| 2026-05-08 06:51 | 40.05504 | 116.59591 | 119 ft | 0 kts | 353° |
| 2026-05-08 06:54 | 40.05510 | 116.59590 | 123 ft | 3 kts | 352° |
| 2026-05-08 06:54 | 40.05551 | 116.59580 | 119 ft | 9 kts | 351° |
| 2026-05-08 06:55 | 40.05630 | 116.59571 | 121 ft | 13 kts | 353° |
| 2026-05-08 06:55 | 40.05702 | 116.59584 | 122 ft | 9 kts | 44° |
| 2026-05-08 06:55 | 40.05717 | 116.59659 | 122 ft | 9 kts | 83° |
| 2026-05-08 06:55 | 40.05734 | 116.59732 | 119 ft | 9 kts | 45° |
| 2026-05-08 06:56 | 40.05804 | 116.59741 | 120 ft | 12 kts | 352° |
| 2026-05-08 06:56 | 40.05904 | 116.59726 | 120 ft | 17 kts | 353° |
| 2026-05-08 06:56 | 40.06033 | 116.59705 | 119 ft | 21 kts | 353° |
| 2026-05-08 06:56 | 40.06183 | 116.59681 | 122 ft | 22 kts | 353° |
| 2026-05-08 06:57 | 40.06332 | 116.59658 | 119 ft | 21 kts | 355° |
| 2026-05-08 06:57 | 40.06477 | 116.59635 | 122 ft | 21 kts | 353° |
| 2026-05-08 06:57 | 40.06635 | 116.59611 | 120 ft | 24 kts | 353° |
| 2026-05-08 06:57 | 40.06820 | 116.59586 | 121 ft | 30 kts | 352° |
| 2026-05-08 06:58 | 40.07027 | 116.59548 | 119 ft | 30 kts | 353° |
| 2026-05-08 06:58 | 40.07227 | 116.59518 | 119 ft | 28 kts | 354° |
| 2026-05-08 06:58 | 40.07404 | 116.59451 | 119 ft | 26 kts | 326° |
| 2026-05-08 06:58 | 40.07551 | 116.59411 | 121 ft | 21 kts | 353° |
| 2026-05-08 06:59 | 40.07696 | 116.59388 | 122 ft | 21 kts | 352° |
| 2026-05-08 06:59 | 40.07837 | 116.59366 | 121 ft | 20 kts | 353° |
| 2026-05-08 06:59 | 40.07974 | 116.59344 | 122 ft | 20 kts | 353° |
| 2026-05-08 06:59 | 40.08122 | 116.59320 | 122 ft | 23 kts | 353° |
| 2026-05-08 07:00 | 40.08286 | 116.59295 | 122 ft | 23 kts | 353° |
| 2026-05-08 07:00 | 40.08440 | 116.59272 | 121 ft | 20 kts | 353° |
| 2026-05-08 07:00 | 40.08546 | 116.59256 | 122 ft | 10 kts | 4° |
| 2026-05-08 07:00 | 40.08581 | 116.59315 | 122 ft | 8 kts | 82° |
| 2026-05-08 07:01 | 40.08591 | 116.59421 | 123 ft | 16 kts | 83° |
| 2026-05-08 07:01 | 40.08586 | 116.59529 | 123 ft | 7 kts | 127° |
| 2026-05-08 07:01 | 40.08555 | 116.59545 | 122 ft | 8 kts | 172° |
| 2026-05-08 07:01 | 40.08297 | 116.59586 | 122 ft | 79 kts | 173° |
| 2026-05-08 07:02 | 40.07494 | 116.59711 | 142 ft | 151 kts | 173° |
| 2026-05-08 07:02 | 40.06387 | 116.59893 | 863 ft | 159 kts | 172° |
| 2026-05-08 07:02 | 40.05356 | 116.60063 | 2092 ft | 145 kts | 170° |
| 2026-05-08 07:02 | 40.04366 | 116.60276 | 3195 ft | 141 kts | 172° |
| 2026-05-08 07:03 | 40.03377 | 116.60440 | 4159 ft | 150 kts | 174° |
| 2026-05-08 07:03 | 40.02215 | 116.60592 | 4656 ft | 188 kts | 175° |
| 2026-05-08 07:03 | 40.00790 | 116.60794 | 4973 ft | 224 kts | 175° |
| 2026-05-08 07:03 | 39.99135 | 116.61038 | 5408 ft | 256 kts | 175° |
| 2026-05-08 07:04 | 39.97318 | 116.61310 | 6423 ft | 265 kts | 176° |
| 2026-05-08 07:04 | 39.95461 | 116.61595 | 7429 ft | 273 kts | 176° |
| 2026-05-08 07:04 | 39.93536 | 116.61890 | 8369 ft | 284 kts | 177° |
| 2026-05-08 07:04 | 39.91548 | 116.62197 | 9337 ft | 292 kts | 177° |
| 2026-05-08 07:05 | 39.89501 | 116.62515 | 10265 ft | 301 kts | 177° |
| 2026-05-08 07:05 | 39.87342 | 116.62847 | 10674 ft | 328 kts | 177° |
| 2026-05-08 07:05 | 39.84967 | 116.63210 | 10901 ft | 358 kts | 177° |
| 2026-05-08 07:05 | 39.82410 | 116.63607 | 11303 ft | 379 kts | 176° |
| 2026-05-08 07:06 | 39.79934 | 116.63988 | 11991 ft | 387 kts | 177° |
| 2026-05-08 07:06 | 39.77192 | 116.64408 | 12851 ft | 393 kts | 177° |
| 2026-05-08 07:06 | 39.74447 | 116.64828 | 13672 ft | 401 kts | 177° |
| 2026-05-08 07:06 | 39.71655 | 116.65254 | 14457 ft | 407 kts | 177° |
| 2026-05-08 07:07 | 39.68823 | 116.65686 | 15327 ft | 412 kts | 176° |
| 2026-05-08 07:07 | 39.65954 | 116.66124 | 16169 ft | 417 kts | 176° |
| 2026-05-08 07:07 | 39.63065 | 116.66746 | 16968 ft | 425 kts | 171° |
| 2026-05-08 07:07 | 39.60185 | 116.67540 | 17757 ft | 432 kts | 170° |
| 2026-05-08 07:08 | 39.57222 | 116.68365 | 18503 ft | 438 kts | 171° |
| 2026-05-08 07:08 | 39.54236 | 116.69262 | 19188 ft | 445 kts | 164° |
| 2026-05-08 07:08 | 39.51411 | 116.70977 | 19906 ft | 451 kts | 152° |
| 2026-05-08 07:08 | 39.48678 | 116.73005 | 20619 ft | 456 kts | 150° |
| 2026-05-08 07:09 | 39.45918 | 116.75071 | 21262 ft | 461 kts | 151° |
| 2026-05-08 07:09 | 39.43112 | 116.77138 | 21911 ft | 466 kts | 152° |
| 2026-05-08 07:09 | 39.40264 | 116.79194 | 22555 ft | 471 kts | 152° |
| 2026-05-08 07:09 | 39.37416 | 116.81223 | 23192 ft | 475 kts | 152° |
| 2026-05-08 07:10 | 39.34507 | 116.83288 | 23769 ft | 479 kts | 152° |
| 2026-05-08 07:10 | 39.31498 | 116.85172 | 24259 ft | 483 kts | 159° |
| 2026-05-08 07:10 | 39.28350 | 116.86731 | 24753 ft | 486 kts | 162° |
| 2026-05-08 07:10 | 39.25227 | 116.88166 | 25249 ft | 489 kts | 162° |
| 2026-05-08 07:11 | 39.22019 | 116.89702 | 25728 ft | 493 kts | 162° |
| 2026-05-08 07:11 | 39.18840 | 116.91413 | 26172 ft | 500 kts | 153° |
| 2026-05-08 07:11 | 39.16039 | 116.94112 | 26600 ft | 508 kts | 134° |
| 2026-05-08 07:11 | 39.13913 | 116.97736 | 27061 ft | 510 kts | 118° |
| 2026-05-08 07:12 | 39.12530 | 117.01934 | 27483 ft | 510 kts | 102° |
| 2026-05-08 07:12 | 39.12030 | 117.06435 | 27865 ft | 508 kts | 90° |
| 2026-05-08 07:12 | 39.11838 | 117.10986 | 28216 ft | 512 kts | 88° |
| 2026-05-08 07:12 | 39.11691 | 117.15586 | 28556 ft | 516 kts | 88° |
| 2026-05-08 07:13 | 39.11529 | 117.20213 | 29022 ft | 518 kts | 89° |
| 2026-05-08 07:13 | 39.11336 | 117.24855 | 29116 ft | 520 kts | 89° |
| 2026-05-08 07:13 | 39.10872 | 117.34127 | 29128 ft | 517 kts | 90° |
| 2026-05-08 07:14 | 39.10389 | 117.43311 | 29126 ft | 517 kts | 90° |
| 2026-05-08 07:14 | 39.09899 | 117.52555 | 29125 ft | 517 kts | 90° |
| 2026-05-08 07:15 | 39.09386 | 117.61795 | 29121 ft | 518 kts | 90° |
| 2026-05-08 07:15 | 39.08866 | 117.71041 | 29137 ft | 518 kts | 90° |
| 2026-05-08 07:16 | 39.08430 | 117.78741 | 29134 ft | 518 kts | 90° |
| 2026-05-08 07:16 | 39.07899 | 117.88001 | 29140 ft | 519 kts | 90° |
| 2026-05-08 07:17 | 39.07361 | 117.97271 | 29145 ft | 520 kts | 90° |
| 2026-05-08 07:17 | 39.06697 | 118.06548 | 29138 ft | 523 kts | 95° |
| 2026-05-08 07:18 | 39.05241 | 118.15735 | 29154 ft | 525 kts | 100° |
| 2026-05-08 07:18 | 39.03614 | 118.24916 | 29152 ft | 526 kts | 99° |
| 2026-05-08 07:19 | 39.02103 | 118.34127 | 29153 ft | 526 kts | 98° |
| 2026-05-08 07:19 | 39.00651 | 118.43273 | 29154 ft | 526 kts | 98° |
| 2026-05-08 07:20 | 38.99166 | 118.52499 | 29157 ft | 527 kts | 99° |
| 2026-05-08 07:20 | 38.97674 | 118.61719 | 29159 ft | 527 kts | 99° |
| 2026-05-08 07:21 | 38.96176 | 118.70953 | 29164 ft | 527 kts | 99° |
| 2026-05-08 07:21 | 38.94672 | 118.80177 | 29166 ft | 528 kts | 99° |
| 2026-05-08 07:22 | 38.93159 | 118.89408 | 29165 ft | 528 kts | 99° |
| 2026-05-08 07:22 | 38.91638 | 118.98645 | 29167 ft | 528 kts | 99° |
| 2026-05-08 07:23 | 38.90116 | 119.07811 | 29169 ft | 529 kts | 99° |
| 2026-05-08 07:23 | 38.88567 | 119.17039 | 29174 ft | 529 kts | 99° |
| 2026-05-08 07:24 | 38.87009 | 119.26276 | 29175 ft | 530 kts | 99° |
| 2026-05-08 07:24 | 38.85444 | 119.35516 | 29179 ft | 530 kts | 99° |
| 2026-05-08 07:25 | 38.83871 | 119.44763 | 29181 ft | 531 kts | 99° |
| 2026-05-08 07:26 | 38.81495 | 119.58637 | 29182 ft | 531 kts | 99° |
| 2026-05-08 07:26 | 38.79911 | 119.67837 | 29189 ft | 531 kts | 99° |
| 2026-05-08 07:27 | 38.78309 | 119.77095 | 29187 ft | 532 kts | 99° |
| 2026-05-08 07:27 | 38.76720 | 119.86349 | 29190 ft | 531 kts | 99° |
| 2026-05-08 07:28 | 38.75245 | 119.95624 | 29194 ft | 532 kts | 98° |
| 2026-05-08 07:28 | 38.73687 | 120.04887 | 29193 ft | 532 kts | 99° |
| 2026-05-08 07:29 | 38.71599 | 120.13969 | 29186 ft | 536 kts | 118° |
| 2026-05-08 07:29 | 38.69429 | 120.17823 | 29198 ft | 534 kts | 136° |
| 2026-05-08 07:29 | 38.66935 | 120.20603 | 29212 ft | 529 kts | 148° |
| 2026-05-08 07:29 | 38.63790 | 120.22849 | 29184 ft | 519 kts | 164° |
| 2026-05-08 07:30 | 38.60373 | 120.24181 | 29214 ft | 513 kts | 169° |
| 2026-05-08 07:30 | 38.57112 | 120.26177 | 29188 ft | 529 kts | 148° |
| 2026-05-08 07:30 | 38.54421 | 120.29426 | 29196 ft | 537 kts | 128° |
| 2026-05-08 07:30 | 38.52604 | 120.33579 | 29205 ft | 538 kts | 108° |
| 2026-05-08 07:31 | 38.51844 | 120.38214 | 29212 ft | 531 kts | 88° |
| 2026-05-08 07:31 | 38.52208 | 120.42825 | 29203 ft | 516 kts | 68° |
| 2026-05-08 07:31 | 38.53425 | 120.47076 | 29222 ft | 508 kts | 60° |
| 2026-05-08 07:32 | 38.55213 | 120.55916 | 29197 ft | 528 kts | 82° |
| 2026-05-08 07:32 | 38.54700 | 120.65328 | 29205 ft | 536 kts | 96° |
| 2026-05-08 07:33 | 38.53134 | 120.74661 | 29197 ft | 538 kts | 101° |
| 2026-05-08 07:33 | 38.51429 | 120.83971 | 29199 ft | 538 kts | 100° |
| 2026-05-08 07:34 | 38.49858 | 120.93247 | 29194 ft | 538 kts | 99° |
| 2026-05-08 07:34 | 38.48328 | 121.02590 | 29198 ft | 538 kts | 99° |
| 2026-05-08 07:35 | 38.46780 | 121.11938 | 29190 ft | 538 kts | 99° |
| 2026-05-08 07:35 | 38.45281 | 121.21283 | 29201 ft | 538 kts | 98° |
| 2026-05-08 07:36 | 38.43838 | 121.30659 | 29203 ft | 538 kts | 99° |
| 2026-05-08 07:36 | 38.42277 | 121.40006 | 29187 ft | 539 kts | 99° |
| 2026-05-08 07:37 | 38.40724 | 121.49359 | 29197 ft | 539 kts | 99° |
| 2026-05-08 07:37 | 38.39170 | 121.58708 | 29200 ft | 539 kts | 99° |
| 2026-05-08 07:38 | 38.37607 | 121.68058 | 29199 ft | 540 kts | 99° |
| 2026-05-08 07:38 | 38.36034 | 121.77416 | 29194 ft | 540 kts | 99° |
| 2026-05-08 07:39 | 38.34454 | 121.86773 | 29191 ft | 540 kts | 99° |
| 2026-05-08 07:39 | 38.32866 | 121.96134 | 29191 ft | 541 kts | 100° |
| 2026-05-08 07:40 | 38.31278 | 122.05443 | 29189 ft | 541 kts | 100° |
| 2026-05-08 07:40 | 38.29672 | 122.14811 | 29187 ft | 542 kts | 100° |
| 2026-05-08 07:41 | 38.28057 | 122.24190 | 29187 ft | 542 kts | 100° |
| 2026-05-08 07:41 | 38.26634 | 122.33603 | 29188 ft | 542 kts | 97° |
| 2026-05-08 07:42 | 38.24792 | 122.42893 | 29180 ft | 546 kts | 113° |
| 2026-05-08 07:42 | 38.20784 | 122.51043 | 29170 ft | 542 kts | 135° |
| 2026-05-08 07:43 | 38.15474 | 122.57696 | 29181 ft | 540 kts | 140° |
| 2026-05-08 07:43 | 38.10131 | 122.64428 | 29177 ft | 541 kts | 138° |
| 2026-05-08 07:44 | 38.04875 | 122.71264 | 29181 ft | 541 kts | 138° |
| 2026-05-08 07:44 | 37.99621 | 122.78109 | 29183 ft | 541 kts | 138° |
| 2026-05-08 07:45 | 37.94358 | 122.84937 | 29187 ft | 541 kts | 138° |
| 2026-05-08 07:45 | 37.89088 | 122.91748 | 29179 ft | 541 kts | 138° |
| 2026-05-08 07:46 | 37.83812 | 122.98552 | 29186 ft | 541 kts | 139° |
| 2026-05-08 07:46 | 37.78528 | 123.05352 | 29186 ft | 542 kts | 139° |
| 2026-05-08 07:47 | 37.73246 | 123.12137 | 29188 ft | 542 kts | 139° |
| 2026-05-08 07:47 | 37.67956 | 123.18917 | 29188 ft | 542 kts | 139° |
| 2026-05-08 07:48 | 37.62668 | 123.25682 | 29187 ft | 542 kts | 139° |
| 2026-05-08 07:48 | 37.57375 | 123.32446 | 29186 ft | 542 kts | 138° |
| 2026-05-08 07:49 | 37.52641 | 123.39821 | 29192 ft | 546 kts | 129° |
| 2026-05-08 07:49 | 37.48147 | 123.47545 | 29189 ft | 547 kts | 129° |
| 2026-05-08 07:50 | 37.43628 | 123.55241 | 29188 ft | 546 kts | 130° |
| 2026-05-08 07:50 | 37.39057 | 123.62893 | 29185 ft | 546 kts | 130° |
| 2026-05-08 07:51 | 37.34478 | 123.70513 | 29183 ft | 546 kts | 130° |
| 2026-05-08 07:51 | 37.29899 | 123.78128 | 29193 ft | 546 kts | 130° |
| 2026-05-08 07:52 | 37.25315 | 123.85741 | 29183 ft | 546 kts | 131° |
| 2026-05-08 07:52 | 37.20735 | 123.93344 | 29181 ft | 546 kts | 129° |
| 2026-05-08 07:52 | 37.18792 | 123.97466 | 29184 ft | 551 kts | 116° |
| 2026-05-08 07:53 | 37.17517 | 124.01927 | 29199 ft | 552 kts | 104° |
| 2026-05-08 07:53 | 37.16856 | 124.06595 | 29184 ft | 551 kts | 92° |
| 2026-05-08 07:54 | 37.17196 | 124.16118 | 29147 ft | 547 kts | 81° |
| 2026-05-08 07:54 | 37.17673 | 124.25650 | 29085 ft | 547 kts | 84° |
| 2026-05-08 07:55 | 37.17871 | 124.35204 | 29076 ft | 548 kts | 85° |
| 2026-05-08 07:55 | 37.18067 | 124.44763 | 29077 ft | 549 kts | 85° |
| 2026-05-08 07:56 | 37.18287 | 124.54266 | 29077 ft | 550 kts | 85° |
| 2026-05-08 07:56 | 37.18500 | 124.63847 | 29077 ft | 550 kts | 85° |
| 2026-05-08 07:57 | 37.18703 | 124.73456 | 29075 ft | 551 kts | 85° |
| 2026-05-08 07:57 | 37.18898 | 124.83061 | 29071 ft | 551 kts | 85° |
| 2026-05-08 07:58 | 37.19092 | 124.92666 | 29065 ft | 551 kts | 85° |
| 2026-05-08 07:58 | 37.19285 | 125.02287 | 29062 ft | 551 kts | 85° |
| 2026-05-08 07:59 | 37.19469 | 125.11896 | 29060 ft | 551 kts | 85° |
| 2026-05-08 07:59 | 37.19645 | 125.21520 | 29059 ft | 552 kts | 85° |
| 2026-05-08 08:00 | 37.19813 | 125.31146 | 29059 ft | 552 kts | 85° |
| 2026-05-08 08:00 | 37.19974 | 125.40776 | 29053 ft | 552 kts | 85° |
| 2026-05-08 08:01 | 37.19915 | 125.50406 | 29022 ft | 556 kts | 98° |
| 2026-05-08 08:01 | 37.18039 | 125.59816 | 29042 ft | 557 kts | 105° |
| 2026-05-08 08:02 | 37.16025 | 125.69120 | 29042 ft | 557 kts | 104° |
| 2026-05-08 08:02 | 37.15073 | 125.73839 | 28864 ft | 558 kts | 104° |
| 2026-05-08 08:02 | 37.14138 | 125.78586 | 27640 ft | 563 kts | 102° |
| 2026-05-08 08:02 | 37.13635 | 125.83424 | 26385 ft | 557 kts | 87° |
| 2026-05-08 08:03 | 37.13692 | 125.88254 | 25183 ft | 552 kts | 84° |
| 2026-05-08 08:03 | 37.13824 | 125.93032 | 24133 ft | 545 kts | 83° |
| 2026-05-08 08:03 | 37.13954 | 125.97717 | 23252 ft | 533 kts | 83° |
| 2026-05-08 08:03 | 37.14054 | 126.02313 | 22388 ft | 520 kts | 84° |
| 2026-05-08 08:04 | 37.14121 | 126.06783 | 21592 ft | 506 kts | 84° |
| 2026-05-08 08:04 | 37.14167 | 126.11140 | 20736 ft | 491 kts | 84° |
| 2026-05-08 08:04 | 37.14200 | 126.15310 | 19678 ft | 473 kts | 84° |
| 2026-05-08 08:04 | 37.14216 | 126.17388 | 19115 ft | 465 kts | 84° |
| 2026-05-08 08:05 | 37.14247 | 126.21375 | 17999 ft | 450 kts | 84° |
| 2026-05-08 08:05 | 37.14278 | 126.25246 | 16808 ft | 437 kts | 83° |
| 2026-05-08 08:05 | 37.14311 | 126.29003 | 15693 ft | 424 kts | 83° |
| 2026-05-08 08:05 | 37.14343 | 126.32605 | 14654 ft | 413 kts | 83° |
| 2026-05-08 08:06 | 37.14375 | 126.36238 | 13628 ft | 412 kts | 83° |
| 2026-05-08 08:06 | 37.14405 | 126.39830 | 12572 ft | 413 kts | 83° |
| 2026-05-08 08:06 | 37.14431 | 126.43380 | 11665 ft | 410 kts | 83° |
| 2026-05-08 08:06 | 37.14542 | 126.46958 | 10719 ft | 400 kts | 75° |
| 2026-05-08 08:07 | 37.15346 | 126.50135 | 9979 ft | 379 kts | 57° |
| 2026-05-08 08:07 | 37.16585 | 126.52904 | 9813 ft | 351 kts | 52° |
| 2026-05-08 08:07 | 37.17802 | 126.55448 | 9673 ft | 330 kts | 51° |
| 2026-05-08 08:07 | 37.18922 | 126.57774 | 9544 ft | 312 kts | 51° |
| 2026-05-08 08:08 | 37.19713 | 126.59428 | 9458 ft | 300 kts | 51° |
| 2026-05-08 08:08 | 37.20752 | 126.61616 | 9327 ft | 285 kts | 51° |
| 2026-05-08 08:08 | 37.21752 | 126.63731 | 8963 ft | 280 kts | 51° |
| 2026-05-08 08:08 | 37.22754 | 126.65830 | 8521 ft | 279 kts | 51° |
| 2026-05-08 08:09 | 37.23757 | 126.67901 | 8090 ft | 277 kts | 51° |
| 2026-05-08 08:09 | 37.24423 | 126.69268 | 7829 ft | 276 kts | 51° |
| 2026-05-08 08:09 | 37.25421 | 126.71301 | 7480 ft | 272 kts | 51° |
| 2026-05-08 08:09 | 37.26404 | 126.73325 | 7065 ft | 272 kts | 54° |
| 2026-05-08 08:10 | 37.27316 | 126.75400 | 6716 ft | 270 kts | 56° |
| 2026-05-08 08:10 | 37.28202 | 126.77477 | 6468 ft | 270 kts | 56° |
| 2026-05-08 08:10 | 37.29090 | 126.79561 | 6216 ft | 271 kts | 56° |
| 2026-05-08 08:10 | 37.29986 | 126.81653 | 5963 ft | 272 kts | 56° |
| 2026-05-08 08:11 | 37.31994 | 126.86322 | 5387 ft | 263 kts | 56° |
| 2026-05-08 08:11 | 37.32843 | 126.88296 | 5304 ft | 250 kts | 56° |
| 2026-05-08 08:11 | 37.33645 | 126.90162 | 5284 ft | 235 kts | 54° |
| 2026-05-08 08:12 | 37.34475 | 126.91873 | 5301 ft | 225 kts | 44° |
| 2026-05-08 08:12 | 37.35562 | 126.93256 | 5275 ft | 220 kts | 39° |
| 2026-05-08 08:12 | 37.36645 | 126.94608 | 5015 ft | 219 kts | 39° |
| 2026-05-08 08:12 | 37.37725 | 126.95973 | 4758 ft | 219 kts | 40° |
| 2026-05-08 08:13 | 37.38866 | 126.97210 | 4514 ft | 213 kts | 22° |
| 2026-05-08 08:13 | 37.40265 | 126.97580 | 4262 ft | 205 kts | 352° |
| 2026-05-08 08:13 | 37.41598 | 126.97051 | 4053 ft | 200 kts | 328° |
| 2026-05-08 08:13 | 37.42615 | 126.95949 | 4004 ft | 186 kts | 316° |
| 2026-05-08 08:14 | 37.43550 | 126.94818 | 3631 ft | 187 kts | 316° |
| 2026-05-08 08:14 | 37.44483 | 126.93686 | 3257 ft | 186 kts | 315° |
| 2026-05-08 08:14 | 37.45398 | 126.92547 | 2919 ft | 182 kts | 316° |
| 2026-05-08 08:14 | 37.46289 | 126.91438 | 2577 ft | 179 kts | 315° |
| 2026-05-08 08:15 | 37.47151 | 126.90337 | 2229 ft | 173 kts | 314° |
| 2026-05-08 08:15 | 37.47969 | 126.89299 | 1985 ft | 159 kts | 314° |
| 2026-05-08 08:15 | 37.48687 | 126.88393 | 1798 ft | 147 kts | 315° |
| 2026-05-08 08:15 | 37.49362 | 126.87540 | 1566 ft | 128 kts | 316° |
| 2026-05-08 08:16 | 37.49965 | 126.86804 | 1403 ft | 117 kts | 315° |
| 2026-05-08 08:16 | 37.50517 | 126.86089 | 1273 ft | 113 kts | 314° |
| 2026-05-08 08:16 | 37.51065 | 126.85392 | 1120 ft | 111 kts | 314° |
| 2026-05-08 08:16 | 37.51616 | 126.84696 | 981 ft | 112 kts | 316° |
| 2026-05-08 08:17 | 37.52186 | 126.83978 | 809 ft | 117 kts | 312° |
| 2026-05-08 08:17 | 37.52765 | 126.83245 | 654 ft | 118 kts | 314° |
| 2026-05-08 08:17 | 37.53349 | 126.82525 | 513 ft | 120 kts | 311° |
| 2026-05-08 08:17 | 37.53942 | 126.81759 | 358 ft | 122 kts | 310° |
| 2026-05-08 08:18 | 37.54532 | 126.81019 | 157 ft | 117 kts | 311° |
| 2026-05-08 08:18 | 37.55083 | 126.80330 | 70 ft | 100 kts | 312° |
| 2026-05-08 08:18 | 37.55465 | 126.79846 | 60 ft | 48 kts | 314° |
| 2026-05-08 08:18 | 37.55607 | 126.79709 | 64 ft | 35 kts | 331° |
| 2026-05-08 08:19 | 37.55828 | 126.79611 | 59 ft | 18 kts | 344° |
| 2026-05-08 08:19 | 37.55934 | 126.79551 | 64 ft | 17 kts | 323° |
| 2026-05-08 08:19 | 37.56013 | 126.79450 | 60 ft | 16 kts | 316° |
| 2026-05-08 08:19 | 37.56090 | 126.79352 | 65 ft | 15 kts | 314° |
| 2026-05-08 08:20 | 37.56161 | 126.79265 | 63 ft | 13 kts | 314° |
| 2026-05-08 08:20 | 37.56204 | 126.79211 | 63 ft | 13 kts | 316° |
| 2026-05-08 08:20 | 37.56272 | 126.79140 | 62 ft | 4 kts | 351° |
| 2026-05-08 08:20 | 37.56292 | 126.79148 | 61 ft | 6 kts | 30° |
| 2026-05-08 08:21 | 37.56341 | 126.79207 | 56 ft | 14 kts | 45° |
| 2026-05-08 08:21 | 37.56417 | 126.79302 | 58 ft | 16 kts | 45° |
| 2026-05-08 08:21 | 37.56493 | 126.79398 | 57 ft | 15 kts | 45° |
| 2026-05-08 08:21 | 37.56566 | 126.79491 | 63 ft | 15 kts | 45° |
| 2026-05-08 08:22 | 37.56636 | 126.79579 | 57 ft | 14 kts | 45° |
| 2026-05-08 08:22 | 37.56703 | 126.79664 | 57 ft | 13 kts | 45° |
| 2026-05-08 08:22 | 37.56748 | 126.79705 | 66 ft | 7 kts | 7° |
| 2026-05-08 08:22 | 37.56782 | 126.79682 | 66 ft | 5 kts | 314° |
| 2026-05-08 08:23 | 37.56805 | 126.79652 | 63 ft | 2 kts | 315° |
| 2026-05-08 08:23 | 37.56812 | 126.79643 | 66 ft | 0 kts | 315° |
| 2026-05-08 08:23 | 37.56813 | 126.79642 | 66 ft | 0 kts | 315° |